Masirah, Oman
Current Conditions -  °F | °C
As of 2:50 AM on Thursday 23 Oct 2014 (Local Time) from EQMN Reporting Station
Clear Clear  
Wind Chill: 82°   Ceiling: Unl
Heat Index: 82°   Visibility: 6mi
Dew Point: 43°   Wind: 1mph
Humidity: 25%   Direction: 300°WNW
Pressure: 29.91"   Gusts: NA
Location:  20.68°N, 58.89°E
Report Text: EQMN 222250Z 30001KT 9999 SKC 28/06 Q1013 BLU NOSIG
Loading
Personal Weather Stations






























Interactive Weather Map
Tropical Storm Tracking
New forecast layout! Learn more

10-Day Weather Forecast

Advertisements
Track Severe Weather on mobile